x

Canaveral East - 120nm East Of Cape Canaveral (41010) Weather Station

2:20am - Sun 24th Jul 2016 All times are EDT. -4 hours from GMT.

  • Wind
    2mph, 4mph gusts
  • Sea Temp 87°f
  • Air Temp 84°f
  • Sea Pressure 1017.3mb
  • Canaveral East - 120nm East Of Cape Canaveral
  • Canaveral East - 120nm East Of Cape Canaveral

More Historic Weather Station data

Upgrade to MSW Pro to gain access to the past 30 days of data for over 8000 Wavebouys and Weather Stations around the globe.

Join Pro

Comparision Forecast

View Surf forecast
   
Sun 07/24 2:20am  -   -   -  2 4 mph 1017.3mb 87f 84f
1:50am 3ft 8s 7s 4 7 mph 1017.3mb 86f 84f
1:20am  -   -   -  4 7 mph 1017.4mb 86f 84f
12:50am 3ft 9s 7s 2 4 mph 1017.5mb 86f 84f
12:20am  -   -   -  2 4 mph 1017.7mb 87f 84f
Sat 07/23 11:50pm 3ft 9s 7s 2 4 mph 1017.6mb 87f 84f
11:20pm  -   -   -  2 4 mph 1017.6mb 87f 84f
10:50pm 3ft 8s 7s 4 7 mph 1017.5mb 87f 84f
10:20pm  -   -   -  4
mph
1017.3mb 87f 84f
9:50pm 2.5ft 8s 7s 2 4 mph 1017mb 87f 85f
9:20pm  -   -   -  4 7 mph 1016.8mb 87f 85f
8:50pm 2.5ft 8s 7s 4
mph
1016.7mb 87f 85f
8:20pm  -   -   -  4
mph
1016.5mb 87f 85f
7:50pm 3ft 9s 7s 4 7 mph 1016.6mb 88f 85f
7:20pm  -   -   -  2 4 mph 1016.4mb 88f 85f
6:50pm 3ft 8s 7s 2 4 mph 1016.4mb 88f 85f
6:20pm  -   -   -  2 4 mph 1016.3mb 88f 85f
5:50pm 3ft 8s 7s 4 7 mph 1016.4mb 88f 85f
5:20pm  -   -   -  4 7 mph 1016.4mb 88f 85f
4:50pm 3ft 8s 7s 7 9 mph 1016.3mb 88f 85f
4:20pm  -   -   -  7 9 mph 1016.4mb 87f 85f
3:50pm 3ft 8s 7s 4 7 mph 1016.6mb 88f 85f
3:20pm  -   -   -  4 7 mph 1017mb 88f 85f
2:50pm 3ft 9s 7s 4 7 mph 1017.1mb 88f 85f
2:20pm  -   -   -  4 7 mph 1017.3mb 88f 85f
1:50pm 3ft 9s 7s 4 7 mph 1017.5mb 88f 85f
1:20pm  -   -   -  4 7 mph 1017.7mb 87f 84f
12:50pm 3ft 9s 7s 4 7 mph 1018mb 87f 84f
12:20pm  -   -   -  4 7 mph 1018.2mb 87f 84f
11:50am 3ft 8s  -  7 9 mph 1018.2mb 87f 84f
11:20am  -   -   -  7 9 mph 1017.9mb 87f 84f
10:50am 3ft 9s 7s 4 7 mph 1017.7mb 87f 84f
10:20am  -   -   -  7
mph
1017.4mb 87f 84f
9:50am 3.5ft 8s 7s 4 7 mph 1017mb 87f 84f
9:20am  -   -   -  7 9 mph 1017mb 86f 84f
8:50am 3.5ft 9s 7s 4 7 mph 1016.9mb 86f 84f
8:20am  -   -   -  2 4 mph 1017mb 86f 85f
7:50am 3.5ft 9s 7s 2 4 mph 1016.8mb 86f 85f
7:20am  -   -   -  4
mph
1016.6mb 86f 84f
6:50am 3.5ft 8s 7s 2 4 mph 1016.4mb 86f 84f
6:20am  -   -   -  2 4 mph 1016.3mb 87f 83f
5:50am 3.5ft 8s 7s 4
mph
1016.4mb 86f 84f
5:20am  -   -   -  2
mph
1016.3mb 86f 83f
4:50am 3.5ft 9s 7s 2 4 mph 1016.2mb 86f 84f
4:20am  -   -   -  4
mph
1016.5mb 86f 84f
3:50am 4ft 9s 7s 4 7 mph 1016.6mb 86f 84f
3:20am  -   -   -  2 4 mph 1016.9mb 86f 84f
2:50am 4ft 8s 7s 2
mph
1017.1mb 86f 84f
2:20am  -   -   -   -  2 mph 1017.2mb 86f 84f
1:50am 4ft 8s 7s  -  mph 1017.2mb 87f 84f
1:20am  -   -   -   -  2 mph 1017.2mb 87f 84f
12:50am 3.5ft 9s 7s 2 4 mph 1017.4mb 87f 84f
12:20am  -   -   -   -  2 mph 1017.4mb 87f 84f
Fri 07/22 11:50pm 4ft 8s 7s  -  2 mph 1017.4mb 87f 84f
11:20pm  -   -   -   -  2 mph 1017.4mb 87f 84f
10:50pm 4ft 9s 7s 2
mph
1017.5mb 87f 84f
10:20pm  -   -   -  2 4 mph 1017.6mb 87f 84f
9:50pm 4ft 8s 7s 2 4 mph 1017.5mb 87f 85f
9:20pm  -   -   -  4 7 mph 1017.2mb 87f 85f
8:50pm 4.5ft 9s 8s 4
mph
1016.9mb 87f 85f
8:20pm  -   -   -  4 7 mph 1016.9mb 87f 85f
7:50pm 4ft 9s 7s 4 7 mph 1017mb 87f 85f
7:20pm  -   -   -  7 9 mph 1017.2mb 87f 85f
6:50pm 4.5ft 9s 8s 4 7 mph 1017.4mb 87f 85f
6:20pm  -   -   -  7
mph
1017.3mb 87f 85f
5:50pm 4.5ft 9s 7s 9 11 mph 1017.3mb 87f 84f
5:20pm  -   -   -  7 9 mph 1017.4mb 87f 85f
4:50pm 4.5ft 9s 7s 7 9 mph 1017.7mb 87f 85f
4:20pm  -   -   -  7
mph
1017.8mb 87f 85f
3:50pm 4ft 9s 7s 7 9 mph 1018.3mb 87f 86f
3:20pm  -   -   -  9 11 mph 1018.3mb 87f 85f
2:20pm  -   -   -  2 4 mph 1019.2mb 88f 85f
1:50pm 4.5ft 9s 8s 2 4 mph 1019.4mb 87f 85f
1:20pm  -   -   -  4 7 mph 1019.7mb 87f 82f
12:50pm 4.5ft 9s 7s 18 22 mph 1019.4mb 87f 81f
12:20pm  -   -   -  2 4 mph 1019.6mb 88f 85f
11:50am 4.5ft 9s 7s 2 7 mph 1019.5mb 87f 85f
11:20am  -   -   -  4 7 mph 1019.2mb 87f 85f
10:50am 4.5ft 9s 7s 2
mph
1019.2mb 87f 85f
10:20am  -   -   -  2 4 mph 1019.1mb 87f 85f
9:50am 4.5ft 9s 7s 2 4 mph 1018.9mb 86f 85f
9:20am  -   -   -  4 7 mph 1019mb 86f 85f
8:50am 4.5ft 9s 7s 4 7 mph 1019.1mb 86f 85f
8:20am  -   -   -  4 7 mph 1018.8mb 86f 85f
7:50am 4.5ft 8s 7s 4 7 mph 1018.5mb 86f 85f
7:20am  -   -   -  2 4 mph 1018.3mb 86f 85f
6:50am 4.5ft 9s 7s 4
mph
1018mb 86f 84f
6:20am  -   -   -  4 7 mph 1017.9mb 86f 84f
5:50am 4.5ft 9s 7s 4 7 mph 1018mb 86f 84f
5:20am  -   -   -  7 9 mph 1018mb 86f 84f
4:50am 4.5ft 9s 7s 7 9 mph 1018.1mb 86f 84f
4:20am  -   -   -  7 9 mph 1018.2mb 86f 84f
3:50am 4ft 9s 7s 4
mph
1018.7mb 86f 84f
3:20am  -   -   -  7 9 mph 1018.9mb 86f 84f
2:50am 4.5ft 9s 7s 7 9 mph 1018.9mb 86f 84f
2:20am  -   -   -  4 7 mph 1019.3mb 86f 84f
1:50am 4.5ft 9s 7s 7 11 mph 1019.6mb 87f 85f
1:20am  -   -   -  7
mph
1019.9mb 87f 85f
12:50am 4.5ft 10s 7s 7 9 mph 1020.1mb 87f 85f
12:20am  -   -   -  7 9 mph 1020.3mb 87f 85f
Thu 07/21 11:50pm 5ft 10s 8s 7 9 mph 1020.1mb 87f 85f
11:20pm  -   -   -  4 9 mph 1020.1mb 87f 85f
10:50pm 5ft 9s 8s 7 9 mph 1019.8mb 87f 85f
10:20pm  -   -   -  7 9 mph 1019.4mb 87f 85f
9:50pm 5ft 10s 8s 7 9 mph 1019.2mb 87f 85f
9:20pm  -   -   -  4 7 mph 1019.2mb 87f 85f
8:50pm 5ft 9s 8s 4 7 mph 1018.9mb 87f 85f
8:20pm  -   -   -  4 7 mph 1018.5mb 88f 85f
7:50pm 4.5ft 10s 7s 2 4 mph 1018.6mb 88f 85f
7:20pm  -   -   -  2 4 mph 1018.6mb 88f 85f
6:50pm 5ft 9s 8s 4
mph
1018.5mb 88f 85f
6:20pm  -   -   -  2 7 mph 1018.6mb 88f 85f
5:50pm 4.5ft 9s 7s 2 4 mph 1018.9mb 88f 85f
5:20pm  -   -   -  2 4 mph 1019mb 88f 85f
4:50pm 4.5ft 9s 7s 2 4 mph 1019.1mb 87f 85f
4:20pm  -   -   -  4 7 mph 1019.2mb 87f 85f
3:50pm 5ft 9s 7s 4 7 mph 1019.5mb 87f 85f
2:50pm 4.5ft 9s 7s 4 7 mph 1020.3mb 87f 85f
2:20pm  -   -   -  4 7 mph 1020.6mb 87f 85f
1:50pm 4.5ft 10s 7s 4 7 mph 1020.9mb 87f 84f
1:20pm  -   -   -  7 9 mph 1020.9mb 87f 84f
12:50pm 5ft 9s 7s 7 9 mph 1021.1mb 87f 85f
12:20pm  -   -   -  7 9 mph 1021.1mb 87f 85f
11:50am 5ft 9s 7s 7
mph
1021.3mb 87f 85f
11:20am  -   -   -  4 7 mph 1021.1mb 86f 84f
10:50am 4.5ft 10s 7s 7 9 mph 1021mb 86f 84f
10:20am  -   -   -  9 11 mph 1020.9mb 86f 83f
9:50am 4.5ft 9s 7s 4 7 mph 1020.6mb 86f 84f
9:20am  -   -   -  2 4 mph 1020.4mb 86f 85f
8:50am 4.5ft 9s 7s 4 7 mph 1020.1mb 86f 84f
8:20am  -   -   -  16 18 mph 1019.8mb 86f 83f
7:50am 5ft 9s 7s 4 7 mph 1019.6mb 86f 84f
7:20am  -   -   -  7
mph
1019.4mb 86f 84f
6:50am 4.5ft 8s 7s 4 7 mph 1019mb 86f 84f
6:20am  -   -   -  7 9 mph 1018.8mb 86f 84f
5:50am 4.5ft 9s 7s 7 9 mph 1018.6mb 86f 84f
5:20am  -   -   -  7 9 mph 1018.6mb 86f 84f
4:50am 5ft 9s 7s 7 9 mph 1018.6mb 86f 84f
4:20am  -   -   -  7 9 mph 1018.7mb 86f 84f
3:50am 4.5ft 9s 7s 9 11 mph 1018.8mb 86f 85f
3:20am  -   -   -  7 9 mph 1019mb 86f 85f
2:50am 5ft 8s 7s 9 11 mph 1019.1mb 86f 85f
2:20am  -   -   -  9 11 mph 1019.5mb 86f 85f
1:50am 5ft 8s 7s 7 9 mph 1019.9mb 86f 85f
1:20am  -   -   -  7 9 mph 1020.2mb 86f 85f
12:50am 4.5ft 8s 7s 7 9 mph 1020.5mb 86f 85f
12:20am  -   -   -  7 9 mph 1020.4mb 86f 85f
Wed 07/20 11:50pm 4.5ft 8s 7s 7 9 mph 1020.6mb 86f 85f
11:20pm  -   -   -  7 9 mph 1020.5mb 86f 85f
10:50pm 4.5ft 8s 7s 9
mph
1020.3mb 86f 85f
10:20pm  -   -   -  7 9 mph 1020.4mb 86f 85f
9:50pm 4.5ft 9s 7s 7 9 mph 1020mb 87f 85f
9:20pm  -   -   -  4 7 mph 1019.7mb 87f 85f
8:50pm 4.5ft 9s 7s 4 7 mph 1019.4mb 87f 85f
8:20pm  -   -   -  7 9 mph 1019.3mb 87f 85f
7:50pm 4ft 8s 7s 7 9 mph 1019mb 87f 85f
7:20pm  -   -   -  7 9 mph 1019mb 87f 85f
6:50pm 4ft 8s 6s 9
mph
1018.9mb 88f 85f
6:20pm  -   -   -  7 9 mph 1019.1mb 88f 85f
5:50pm 4ft 8s 6s 7 9 mph 1019.4mb 88f 85f
5:20pm  -   -   -  7 9 mph 1019.6mb 88f 86f
4:50pm 4.5ft 8s 7s 7 11 mph 1019.9mb 88f 85f
4:20pm  -   -   -  7 9 mph 1020.2mb 88f 85f
3:50pm 4.5ft 8s 6s 7 9 mph 1020.5mb 88f 85f
3:20pm  -   -   -  7 9 mph 1020.6mb 88f 85f
2:50pm 4.5ft 8s 6s 7 9 mph 1020.7mb 87f 85f
2:20pm  -   -   -  7
mph
1021mb 88f 85f
1:50pm 5ft 8s 6s 4 7 mph 1021.3mb 87f 85f
1:20pm  -   -   -  4 7 mph 1021.4mb 87f 85f
12:50pm 5ft 8s 6s 4 7 mph 1021.4mb 87f 85f
12:20pm  -   -   -  4 7 mph 1021.5mb 87f 85f
11:50am 4.5ft 8s 6s 4 7 mph 1021.7mb 86f 85f
11:20am  -   -   -  7 9 mph 1021.8mb 86f 85f
10:50am 5ft 8s 6s 4 7 mph 1021.8mb 86f 85f
10:20am  -   -   -  4
mph
1021.8mb 86f 85f
9:50am 4.5ft 8s 6s 4 7 mph 1021.4mb 86f 85f
9:20am  -   -   -  4 7 mph 1021.3mb 86f 85f
8:50am 4.5ft 8s 6s 4
mph
1021.2mb 86f 85f
8:20am  -   -   -  4
mph
1021.1mb 86f 85f
7:50am 4.5ft 8s 6s 4 7 mph 1020.7mb 86f 84f
7:20am  -   -   -  7 9 mph 1020.5mb 86f 84f